createdAt,value
2019-03-31T00:02:58.322Z,99.90
2019-03-31T00:08:03.631Z,99.90
2019-03-31T00:13:08.642Z,99.90
2019-03-31T00:18:13.905Z,99.90
2019-03-31T00:23:19.081Z,99.90
2019-03-31T00:28:43.421Z,99.90
2019-03-31T00:33:48.497Z,99.90
2019-03-31T00:38:53.649Z,99.90
2019-03-31T00:43:58.914Z,99.90
2019-03-31T00:49:04.194Z,99.90
2019-03-31T00:54:09.627Z,99.90
2019-03-31T00:59:14.719Z,99.90
2019-03-31T01:04:22.206Z,99.90
2019-03-31T01:09:29.900Z,99.90
2019-03-31T01:14:34.993Z,99.90
2019-03-31T01:19:40.550Z,99.90
2019-03-31T01:24:45.978Z,99.90
2019-03-31T01:29:50.892Z,99.90
2019-03-31T01:34:56.065Z,99.90
2019-03-31T01:40:01.826Z,99.90
2019-03-31T01:45:08.570Z,99.90
2019-03-31T01:50:16.006Z,99.90
2019-03-31T01:55:21.381Z,99.90
2019-03-31T02:00:28.315Z,99.90
2019-03-31T02:05:33.823Z,99.90
2019-03-31T02:10:39.054Z,99.90
2019-03-31T02:15:44.590Z,99.90
2019-03-31T02:20:49.812Z,99.90
2019-03-31T02:25:54.903Z,99.90
2019-03-31T02:30:59.933Z,99.90
2019-03-31T02:36:05.287Z,99.90
2019-03-31T02:41:29.886Z,99.90
2019-03-31T02:46:35.002Z,99.90
2019-03-31T02:51:40.795Z,99.90
2019-03-31T02:56:46.772Z,99.90
2019-03-31T03:02:12.489Z,99.90
2019-03-31T03:07:18.843Z,99.90
2019-03-31T03:12:25.964Z,99.90
2019-03-31T03:17:31.337Z,99.90
2019-03-31T03:22:36.380Z,99.90
2019-03-31T03:27:41.604Z,99.90
2019-03-31T03:33:12.105Z,99.90
2019-03-31T03:37:53.325Z,99.90
2019-03-31T03:42:58.784Z,99.90
2019-03-31T03:48:04.083Z,99.90
2019-03-31T03:53:28.339Z,99.90
2019-03-31T03:58:33.500Z,99.90
2019-03-31T04:03:38.637Z,99.90
2019-03-31T04:08:43.930Z,99.90
2019-03-31T04:13:50.196Z,99.90
2019-03-31T04:18:55.141Z,99.90
2019-03-31T04:24:00.490Z,99.90
2019-03-31T04:29:24.693Z,99.90
2019-03-31T04:34:49.085Z,99.90
2019-03-31T04:40:04.980Z,99.90
2019-03-31T04:45:10.122Z,99.90
2019-03-31T04:50:15.235Z,99.90
2019-03-31T04:55:20.821Z,99.90
2019-03-31T05:00:25.777Z,99.90
2019-03-31T05:05:30.926Z,99.90
2019-03-31T05:10:36.122Z,99.90
2019-03-31T05:15:41.234Z,99.90
2019-03-31T05:20:46.622Z,99.90
2019-03-31T05:25:51.671Z,99.90
2019-03-31T05:30:56.945Z,99.90
2019-03-31T05:36:02.098Z,99.90
2019-03-31T05:41:07.198Z,99.90
2019-03-31T05:46:12.384Z,99.90
2019-03-31T05:51:17.502Z,99.90
2019-03-31T05:56:22.695Z,99.90
2019-03-31T06:01:27.866Z,99.90
2019-03-31T06:06:32.975Z,99.90
2019-03-31T06:11:38.172Z,99.90
2019-03-31T06:16:43.325Z,99.90
2019-03-31T06:21:48.539Z,99.90
2019-03-31T06:26:53.717Z,99.90
2019-03-31T06:31:58.864Z,99.90
2019-03-31T06:37:03.822Z,99.80
2019-03-31T06:42:08.971Z,99.10
2019-03-31T06:47:13.869Z,98.20
2019-03-31T06:52:20.567Z,96.90
2019-03-31T06:57:25.669Z,95.70
2019-03-31T07:02:30.700Z,94.70
2019-03-31T07:07:35.626Z,93.80
2019-03-31T07:12:40.635Z,92.90
2019-03-31T07:17:46.311Z,92.70
2019-03-31T07:22:51.410Z,92.70
2019-03-31T07:27:56.600Z,91.40
2019-03-31T07:33:01.528Z,90.60
2019-03-31T07:38:06.631Z,90.30
2019-03-31T07:43:20.326Z,89.30
2019-03-31T07:48:25.583Z,88.50
2019-03-31T07:53:31.895Z,86.70
2019-03-31T07:58:37.043Z,84.80
2019-03-31T08:04:06.372Z,84.20
2019-03-31T08:09:20.378Z,82.60
2019-03-31T08:14:31.459Z,81.40
2019-03-31T08:19:37.298Z,80.70
2019-03-31T08:24:57.426Z,78.40
2019-03-31T08:30:03.349Z,78.60
2019-03-31T08:41:28.159Z,76.30
2019-03-31T08:51:39.699Z,76.80
2019-03-31T08:56:44.944Z,75.30
2019-03-31T09:01:50.349Z,74.30
2019-03-31T09:07:14.731Z,76.30
2019-03-31T09:12:19.704Z,73.40
2019-03-31T09:17:26.864Z,71.40
2019-03-31T09:22:33.849Z,72.50
2019-03-31T09:27:39.405Z,73.90
2019-03-31T09:32:44.715Z,73.90
2019-03-31T09:37:49.962Z,72.90
2019-03-31T09:42:55.250Z,69.60
2019-03-31T09:48:00.451Z,70.20
2019-03-31T09:53:05.760Z,67.90
2019-03-31T09:58:11.496Z,68.30
2019-03-31T10:03:17.500Z,68.30
2019-03-31T10:08:22.863Z,65.80
2019-03-31T10:13:28.227Z,66.30
2019-03-31T10:18:33.488Z,64.60
2019-03-31T10:23:39.024Z,66.00
2019-03-31T10:28:44.839Z,67.30
2019-03-31T10:33:49.925Z,66.60
2019-03-31T10:38:55.196Z,65.70
2019-03-31T10:44:00.556Z,64.20
2019-03-31T11:10:29.156Z,62.20
2019-03-31T11:15:34.864Z,57.70
2019-03-31T11:20:40.708Z,56.60
2019-03-31T11:25:46.130Z,56.90
2019-03-31T11:30:51.606Z,57.10
2019-03-31T11:35:58.802Z,57.50
2019-03-31T11:41:04.303Z,59.10
2019-03-31T11:46:09.847Z,58.90
2019-03-31T11:51:15.249Z,59.50
2019-03-31T11:56:20.351Z,59.00
2019-03-31T12:01:25.946Z,56.20
2019-03-31T12:06:31.115Z,55.70
2019-03-31T12:11:36.373Z,55.20
2019-03-31T12:16:41.907Z,54.40
2019-03-31T12:21:47.476Z,54.60
2019-03-31T12:26:52.492Z,52.00
2019-03-31T12:31:57.786Z,50.60
2019-03-31T12:37:03.150Z,48.90
2019-03-31T12:42:08.350Z,48.20
2019-03-31T12:47:13.769Z,47.90
2019-03-31T12:52:19.444Z,43.40
2019-03-31T12:57:24.917Z,42.00
2019-03-31T13:02:30.121Z,43.70
2019-03-31T13:07:35.304Z,42.80
2019-03-31T13:12:40.721Z,41.20
2019-03-31T13:17:45.972Z,41.30
2019-03-31T13:22:51.636Z,40.40
2019-03-31T13:27:58.024Z,41.30
2019-03-31T13:33:03.488Z,41.80
2019-03-31T13:38:11.194Z,39.50
2019-03-31T13:43:15.902Z,38.90
2019-03-31T13:48:21.963Z,38.00
2019-03-31T13:53:27.062Z,38.20
2019-03-31T13:58:33.772Z,36.30
2019-03-31T14:03:39.409Z,37.00
2019-03-31T14:08:44.855Z,39.30
2019-03-31T14:13:50.596Z,37.60
2019-03-31T14:18:56.220Z,36.70
2019-03-31T14:24:01.588Z,37.20
2019-03-31T14:29:07.046Z,36.80
2019-03-31T14:34:12.632Z,36.60
2019-03-31T14:39:17.952Z,36.20
2019-03-31T14:44:23.249Z,34.40
2019-03-31T14:49:28.637Z,33.10
2019-03-31T14:54:34.363Z,35.90
2019-03-31T14:59:39.945Z,34.50
2019-03-31T15:04:45.551Z,33.70
2019-03-31T15:09:51.229Z,34.90
2019-03-31T15:14:56.620Z,32.30
2019-03-31T15:20:02.399Z,31.80
2019-03-31T15:25:08.222Z,31.90
2019-03-31T15:30:14.279Z,29.70
2019-03-31T15:35:19.499Z,26.70
2019-03-31T15:40:25.010Z,27.90
2019-03-31T15:45:30.400Z,29.70
2019-03-31T15:50:35.772Z,31.10
2019-03-31T15:55:41.121Z,33.10
2019-03-31T16:00:46.682Z,34.20
2019-03-31T16:05:51.950Z,35.60
2019-03-31T16:10:57.331Z,35.50
2019-03-31T16:16:02.654Z,35.00
2019-03-31T16:21:08.208Z,32.50
2019-03-31T16:26:13.168Z,32.00
2019-03-31T16:31:18.145Z,32.50
2019-03-31T16:36:23.491Z,35.30
2019-03-31T16:41:28.460Z,36.80
2019-03-31T16:46:33.765Z,36.80
2019-03-31T16:51:38.995Z,37.80
2019-03-31T16:56:44.291Z,40.10
2019-03-31T17:01:49.648Z,42.40
2019-03-31T17:06:54.634Z,44.80
2019-03-31T17:11:59.696Z,46.40
2019-03-31T17:17:05.287Z,47.20
2019-03-31T17:22:11.235Z,49.00
2019-03-31T17:27:17.047Z,50.30
2019-03-31T17:32:22.592Z,50.70
2019-03-31T17:37:28.024Z,50.50
2019-03-31T17:42:33.558Z,50.00
2019-03-31T17:47:38.747Z,49.30
2019-03-31T17:52:44.178Z,49.50
2019-03-31T17:57:50.224Z,49.40
2019-03-31T18:02:55.255Z,50.10
2019-03-31T18:08:00.817Z,50.50
2019-03-31T18:13:06.263Z,51.10
2019-03-31T18:18:11.839Z,51.50
2019-03-31T18:23:17.100Z,52.40
2019-03-31T18:28:22.402Z,53.20
2019-03-31T18:33:27.478Z,53.90
2019-03-31T18:38:33.330Z,54.70
2019-03-31T18:43:51.154Z,55.20
2019-03-31T18:48:53.886Z,56.70
2019-03-31T18:54:12.408Z,57.30
2019-03-31T18:59:57.479Z,58.40
2019-03-31T19:06:05.728Z,59.30
2019-03-31T19:11:40.371Z,60.70
2019-03-31T19:28:38.371Z,64.20
2019-03-31T19:34:14.151Z,65.50
2019-03-31T19:39:32.491Z,66.40
2019-03-31T19:45:02.359Z,67.10
2019-03-31T19:56:41.325Z,68.90
2019-03-31T20:02:08.700Z,69.20
2019-03-31T20:18:48.974Z,72.50
2019-03-31T20:24:00.773Z,73.70
2019-03-31T20:29:50.249Z,74.50
2019-03-31T20:35:34.041Z,74.80
2019-03-31T20:46:04.655Z,76.10
2019-03-31T20:51:10.212Z,77.00
2019-03-31T20:56:15.476Z,77.70
2019-03-31T21:01:20.522Z,78.30
2019-03-31T21:06:25.785Z,79.10
2019-03-31T21:11:31.287Z,79.80
2019-03-31T21:16:36.617Z,80.40
2019-03-31T21:21:41.589Z,81.10
2019-03-31T21:26:46.699Z,81.40
2019-03-31T21:31:52.228Z,81.30
2019-03-31T21:36:57.721Z,82.40
2019-03-31T21:42:02.904Z,83.20
2019-03-31T21:47:08.302Z,83.10
2019-03-31T21:52:13.589Z,84.80
2019-03-31T21:57:18.575Z,85.00
2019-03-31T22:02:23.665Z,85.10
2019-03-31T22:07:29.023Z,85.20
2019-03-31T22:12:34.115Z,85.40
2019-03-31T22:17:39.425Z,85.80
2019-03-31T22:22:44.614Z,86.80
2019-03-31T22:27:49.961Z,87.90
2019-03-31T22:32:55.030Z,89.00
2019-03-31T22:38:02.406Z,89.70
2019-03-31T22:43:08.029Z,90.30
2019-03-31T22:48:13.371Z,90.60
2019-03-31T22:53:18.577Z,91.10
2019-03-31T22:58:23.700Z,91.70
2019-03-31T23:03:29.072Z,92.10
2019-03-31T23:08:34.214Z,92.30
2019-03-31T23:13:39.381Z,92.50
2019-03-31T23:18:44.694Z,92.70
2019-03-31T23:23:50.384Z,93.10
2019-03-31T23:28:55.455Z,93.40
2019-03-31T23:34:00.608Z,93.90
2019-03-31T23:39:07.672Z,93.90
2019-03-31T23:44:12.786Z,94.10
2019-03-31T23:49:18.131Z,94.40
2019-03-31T23:54:42.455Z,94.30
2019-03-31T23:59:47.659Z,94.60
